sensor_id;sensor_type;location;lat;lon;timestamp;P1;durP1;ratioP1;P2;durP2;ratioP2
2860;SDS011;1438;50.922;6.704;2023-04-06T00:00:52;19.67;;;11.07;;
2860;SDS011;1438;50.922;6.704;2023-04-06T00:03:18;24.08;;;11.20;;
2860;SDS011;1438;50.922;6.704;2023-04-06T00:05:44;17.10;;;10.55;;
2860;SDS011;1438;50.922;6.704;2023-04-06T00:08:10;18.83;;;12.18;;
2860;SDS011;1438;50.922;6.704;2023-04-06T00:10:36;19.58;;;10.65;;
2860;SDS011;1438;50.922;6.704;2023-04-06T00:13:02;18.73;;;11.95;;
2860;SDS011;1438;50.922;6.704;2023-04-06T00:15:28;16.98;;;11.27;;
2860;SDS011;1438;50.922;6.704;2023-04-06T00:17:55;22.08;;;11.23;;
2860;SDS011;1438;50.922;6.704;2023-04-06T00:20:21;19.70;;;12.38;;
2860;SDS011;1438;50.922;6.704;2023-04-06T00:22:47;16.08;;;10.40;;
2860;SDS011;1438;50.922;6.704;2023-04-06T00:25:13;17.75;;;10.52;;
2860;SDS011;1438;50.922;6.704;2023-04-06T00:27:40;17.08;;;10.38;;
2860;SDS011;1438;50.922;6.704;2023-04-06T00:30:07;16.80;;;11.25;;
2860;SDS011;1438;50.922;6.704;2023-04-06T00:32:34;16.77;;;10.52;;
2860;SDS011;1438;50.922;6.704;2023-04-06T00:35:04;15.93;;;10.85;;
2860;SDS011;1438;50.922;6.704;2023-04-06T00:37:30;17.42;;;10.13;;
2860;SDS011;1438;50.922;6.704;2023-04-06T00:39:56;20.52;;;10.45;;
2860;SDS011;1438;50.922;6.704;2023-04-06T00:42:22;13.82;;;9.60;;
2860;SDS011;1438;50.922;6.704;2023-04-06T00:44:52;18.05;;;10.55;;
2860;SDS011;1438;50.922;6.704;2023-04-06T00:47:18;17.92;;;10.20;;
2860;SDS011;1438;50.922;6.704;2023-04-06T00:49:45;17.27;;;10.45;;
2860;SDS011;1438;50.922;6.704;2023-04-06T00:52:11;14.85;;;9.45;;
2860;SDS011;1438;50.922;6.704;2023-04-06T00:54:37;21.02;;;11.10;;
2860;SDS011;1438;50.922;6.704;2023-04-06T00:57:03;16.88;;;9.90;;
2860;SDS011;1438;50.922;6.704;2023-04-06T00:59:29;18.90;;;10.20;;
2860;SDS011;1438;50.922;6.704;2023-04-06T01:01:55;14.57;;;9.15;;
2860;SDS011;1438;50.922;6.704;2023-04-06T01:04:21;17.10;;;9.75;;
2860;SDS011;1438;50.922;6.704;2023-04-06T01:06:48;14.40;;;9.15;;
2860;SDS011;1438;50.922;6.704;2023-04-06T01:09:14;14.10;;;9.80;;
2860;SDS011;1438;50.922;6.704;2023-04-06T01:11:40;13.95;;;9.40;;
2860;SDS011;1438;50.922;6.704;2023-04-06T01:14:06;19.95;;;9.93;;
2860;SDS011;1438;50.922;6.704;2023-04-06T01:16:33;18.63;;;10.38;;
2860;SDS011;1438;50.922;6.704;2023-04-06T01:19:00;17.30;;;10.10;;
2860;SDS011;1438;50.922;6.704;2023-04-06T01:21:26;21.83;;;9.60;;
2860;SDS011;1438;50.922;6.704;2023-04-06T01:23:52;14.25;;;10.00;;
2860;SDS011;1438;50.922;6.704;2023-04-06T01:26:18;15.38;;;9.48;;
2860;SDS011;1438;50.922;6.704;2023-04-06T01:28:44;17.73;;;9.88;;
2860;SDS011;1438;50.922;6.704;2023-04-06T01:31:10;18.88;;;9.93;;
2860;SDS011;1438;50.922;6.704;2023-04-06T01:33:36;23.45;;;11.27;;
2860;SDS011;1438;50.922;6.704;2023-04-06T01:36:03;16.90;;;10.00;;
2860;SDS011;1438;50.922;6.704;2023-04-06T01:38:29;15.45;;;10.85;;
2860;SDS011;1438;50.922;6.704;2023-04-06T01:40:55;17.08;;;10.80;;
2860;SDS011;1438;50.922;6.704;2023-04-06T01:43:21;17.35;;;10.45;;
2860;SDS011;1438;50.922;6.704;2023-04-06T01:45:48;18.83;;;11.05;;
2860;SDS011;1438;50.922;6.704;2023-04-06T01:48:14;18.23;;;11.15;;
2860;SDS011;1438;50.922;6.704;2023-04-06T01:50:40;18.70;;;9.73;;
2860;SDS011;1438;50.922;6.704;2023-04-06T01:53:06;16.40;;;10.63;;
2860;SDS011;1438;50.922;6.704;2023-04-06T01:55:32;14.68;;;9.63;;
2860;SDS011;1438;50.922;6.704;2023-04-06T01:57:58;17.48;;;10.25;;
2860;SDS011;1438;50.922;6.704;2023-04-06T02:00:24;13.88;;;9.95;;
2860;SDS011;1438;50.922;6.704;2023-04-06T02:02:50;16.60;;;10.73;;
2860;SDS011;1438;50.922;6.704;2023-04-06T02:05:16;14.10;;;10.00;;
2860;SDS011;1438;50.922;6.704;2023-04-06T02:07:42;20.50;;;10.13;;
2860;SDS011;1438;50.922;6.704;2023-04-06T02:10:12;18.17;;;11.75;;
2860;SDS011;1438;50.922;6.704;2023-04-06T02:12:38;19.85;;;9.70;;
2860;SDS011;1438;50.922;6.704;2023-04-06T02:15:04;15.40;;;10.85;;
2860;SDS011;1438;50.922;6.704;2023-04-06T02:17:31;16.48;;;9.50;;
2860;SDS011;1438;50.922;6.704;2023-04-06T02:19:58;15.70;;;10.15;;
2860;SDS011;1438;50.922;6.704;2023-04-06T02:22:24;14.88;;;9.38;;
2860;SDS011;1438;50.922;6.704;2023-04-06T02:24:50;17.55;;;10.02;;
2860;SDS011;1438;50.922;6.704;2023-04-06T02:27:16;16.60;;;10.07;;
2860;SDS011;1438;50.922;6.704;2023-04-06T02:29:42;14.13;;;10.10;;
2860;SDS011;1438;50.922;6.704;2023-04-06T02:32:08;20.52;;;11.15;;
2860;SDS011;1438;50.922;6.704;2023-04-06T02:34:34;15.32;;;8.77;;
2860;SDS011;1438;50.922;6.704;2023-04-06T02:37:00;21.92;;;10.30;;
2860;SDS011;1438;50.922;6.704;2023-04-06T02:39:26;15.20;;;9.40;;
2860;SDS011;1438;50.922;6.704;2023-04-06T02:41:52;16.40;;;10.50;;
2860;SDS011;1438;50.922;6.704;2023-04-06T02:44:18;22.20;;;9.77;;
2860;SDS011;1438;50.922;6.704;2023-04-06T02:46:44;18.65;;;10.60;;
2860;SDS011;1438;50.922;6.704;2023-04-06T02:49:11;15.40;;;9.00;;
2860;SDS011;1438;50.922;6.704;2023-04-06T02:51:37;16.65;;;9.60;;
2860;SDS011;1438;50.922;6.704;2023-04-06T02:54:03;14.85;;;9.10;;
2860;SDS011;1438;50.922;6.704;2023-04-06T02:56:29;16.58;;;9.68;;
2860;SDS011;1438;50.922;6.704;2023-04-06T02:58:55;21.08;;;9.55;;
2860;SDS011;1438;50.922;6.704;2023-04-06T03:01:21;17.13;;;10.13;;
2860;SDS011;1438;50.922;6.704;2023-04-06T03:03:47;14.68;;;9.13;;
2860;SDS011;1438;50.922;6.704;2023-04-06T03:06:13;22.15;;;10.15;;
2860;SDS011;1438;50.922;6.704;2023-04-06T03:08:39;20.33;;;10.30;;
2860;SDS011;1438;50.922;6.704;2023-04-06T03:11:05;17.90;;;9.52;;
2860;SDS011;1438;50.922;6.704;2023-04-06T03:13:32;14.00;;;9.15;;
2860;SDS011;1438;50.922;6.704;2023-04-06T03:15:58;18.67;;;10.90;;
2860;SDS011;1438;50.922;6.704;2023-04-06T03:18:24;18.30;;;11.35;;
2860;SDS011;1438;50.922;6.704;2023-04-06T03:20:51;18.75;;;10.00;;
2860;SDS011;1438;50.922;6.704;2023-04-06T03:23:20;14.00;;;9.65;;
2860;SDS011;1438;50.922;6.704;2023-04-06T03:25:46;17.63;;;11.13;;
2860;SDS011;1438;50.922;6.704;2023-04-06T03:28:12;17.48;;;10.15;;
2860;SDS011;1438;50.922;6.704;2023-04-06T03:30:38;18.25;;;10.55;;
2860;SDS011;1438;50.922;6.704;2023-04-06T03:33:04;20.15;;;10.48;;
2860;SDS011;1438;50.922;6.704;2023-04-06T03:35:31;21.40;;;10.88;;
2860;SDS011;1438;50.922;6.704;2023-04-06T03:37:57;17.38;;;9.50;;
2860;SDS011;1438;50.922;6.704;2023-04-06T03:40:23;12.88;;;9.13;;
2860;SDS011;1438;50.922;6.704;2023-04-06T03:42:49;18.80;;;11.43;;
2860;SDS011;1438;50.922;6.704;2023-04-06T03:45:15;18.75;;;10.77;;
2860;SDS011;1438;50.922;6.704;2023-04-06T03:47:41;16.70;;;10.85;;
2860;SDS011;1438;50.922;6.704;2023-04-06T03:50:08;15.32;;;10.10;;
2860;SDS011;1438;50.922;6.704;2023-04-06T03:52:34;19.70;;;11.75;;
2860;SDS011;1438;50.922;6.704;2023-04-06T03:55:01;18.00;;;9.90;;
2860;SDS011;1438;50.922;6.704;2023-04-06T03:57:27;20.00;;;9.75;;
2860;SDS011;1438;50.922;6.704;2023-04-06T03:59:53;16.02;;;11.25;;
2860;SDS011;1438;50.922;6.704;2023-04-06T04:02:19;15.68;;;11.25;;
2860;SDS011;1438;50.922;6.704;2023-04-06T04:04:45;21.42;;;10.50;;
2860;SDS011;1438;50.922;6.704;2023-04-06T04:07:11;21.15;;;10.38;;
2860;SDS011;1438;50.922;6.704;2023-04-06T04:09:37;14.85;;;9.98;;
2860;SDS011;1438;50.922;6.704;2023-04-06T04:12:03;19.58;;;11.20;;
2860;SDS011;1438;50.922;6.704;2023-04-06T04:14:30;17.33;;;11.40;;
2860;SDS011;1438;50.922;6.704;2023-04-06T04:16:56;17.25;;;10.90;;
2860;SDS011;1438;50.922;6.704;2023-04-06T04:19:22;16.35;;;10.48;;
2860;SDS011;1438;50.922;6.704;2023-04-06T04:21:48;15.90;;;10.98;;
2860;SDS011;1438;50.922;6.704;2023-04-06T04:24:14;19.23;;;10.50;;
2860;SDS011;1438;50.922;6.704;2023-04-06T04:26:40;19.55;;;12.05;;
2860;SDS011;1438;50.922;6.704;2023-04-06T04:29:06;20.25;;;11.38;;
2860;SDS011;1438;50.922;6.704;2023-04-06T04:31:32;26.48;;;9.90;;
2860;SDS011;1438;50.922;6.704;2023-04-06T04:33:59;18.25;;;9.70;;
2860;SDS011;1438;50.922;6.704;2023-04-06T04:36:26;17.85;;;10.80;;
2860;SDS011;1438;50.922;6.704;2023-04-06T04:38:52;17.15;;;10.82;;
2860;SDS011;1438;50.922;6.704;2023-04-06T04:41:18;17.55;;;10.30;;
2860;SDS011;1438;50.922;6.704;2023-04-06T04:43:45;16.75;;;10.55;;
2860;SDS011;1438;50.922;6.704;2023-04-06T04:46:11;18.08;;;11.65;;
2860;SDS011;1438;50.922;6.704;2023-04-06T04:48:37;17.40;;;10.05;;
2860;SDS011;1438;50.922;6.704;2023-04-06T04:51:03;21.50;;;10.52;;
2860;SDS011;1438;50.922;6.704;2023-04-06T04:53:30;16.63;;;10.38;;
2860;SDS011;1438;50.922;6.704;2023-04-06T04:55:56;14.43;;;9.32;;
2860;SDS011;1438;50.922;6.704;2023-04-06T04:58:22;17.08;;;10.63;;
2860;SDS011;1438;50.922;6.704;2023-04-06T05:00:48;20.50;;;10.45;;
2860;SDS011;1438;50.922;6.704;2023-04-06T05:03:20;16.85;;;9.70;;
2860;SDS011;1438;50.922;6.704;2023-04-06T05:05:47;17.33;;;10.98;;
2860;SDS011;1438;50.922;6.704;2023-04-06T05:08:13;20.70;;;10.65;;
2860;SDS011;1438;50.922;6.704;2023-04-06T05:10:39;17.58;;;10.30;;
2860;SDS011;1438;50.922;6.704;2023-04-06T05:13:05;14.50;;;9.70;;
2860;SDS011;1438;50.922;6.704;2023-04-06T05:15:32;16.50;;;11.10;;
2860;SDS011;1438;50.922;6.704;2023-04-06T05:18:03;14.00;;;10.50;;
2860;SDS011;1438;50.922;6.704;2023-04-06T05:20:29;17.23;;;10.65;;
2860;SDS011;1438;50.922;6.704;2023-04-06T05:22:55;13.73;;;9.02;;
2860;SDS011;1438;50.922;6.704;2023-04-06T05:25:22;14.07;;;9.38;;
2860;SDS011;1438;50.922;6.704;2023-04-06T05:27:48;17.05;;;9.80;;
2860;SDS011;1438;50.922;6.704;2023-04-06T05:30:14;16.23;;;9.73;;
2860;SDS011;1438;50.922;6.704;2023-04-06T05:32:40;20.25;;;9.38;;
2860;SDS011;1438;50.922;6.704;2023-04-06T05:35:08;23.13;;;10.45;;
2860;SDS011;1438;50.922;6.704;2023-04-06T05:37:34;15.55;;;9.93;;
2860;SDS011;1438;50.922;6.704;2023-04-06T05:40:00;19.58;;;9.80;;
2860;SDS011;1438;50.922;6.704;2023-04-06T05:42:27;15.43;;;9.93;;
2860;SDS011;1438;50.922;6.704;2023-04-06T05:44:53;12.40;;;9.57;;
2860;SDS011;1438;50.922;6.704;2023-04-06T05:47:19;18.77;;;10.25;;
2860;SDS011;1438;50.922;6.704;2023-04-06T05:49:45;15.40;;;10.07;;
2860;SDS011;1438;50.922;6.704;2023-04-06T05:52:11;14.93;;;10.02;;
2860;SDS011;1438;50.922;6.704;2023-04-06T05:54:37;16.10;;;9.00;;
2860;SDS011;1438;50.922;6.704;2023-04-06T05:57:03;19.17;;;10.02;;
2860;SDS011;1438;50.922;6.704;2023-04-06T05:59:32;15.35;;;9.68;;
2860;SDS011;1438;50.922;6.704;2023-04-06T06:01:58;14.50;;;9.25;;
2860;SDS011;1438;50.922;6.704;2023-04-06T06:04:26;11.93;;;9.02;;
2860;SDS011;1438;50.922;6.704;2023-04-06T06:06:52;22.65;;;9.88;;
2860;SDS011;1438;50.922;6.704;2023-04-06T06:09:18;15.63;;;8.70;;
2860;SDS011;1438;50.922;6.704;2023-04-06T06:11:44;13.90;;;8.85;;
2860;SDS011;1438;50.922;6.704;2023-04-06T06:14:10;16.45;;;10.07;;
2860;SDS011;1438;50.922;6.704;2023-04-06T06:16:36;19.75;;;10.88;;
2860;SDS011;1438;50.922;6.704;2023-04-06T06:19:02;13.52;;;9.27;;
2860;SDS011;1438;50.922;6.704;2023-04-06T06:21:28;13.52;;;8.18;;
2860;SDS011;1438;50.922;6.704;2023-04-06T06:23:55;16.55;;;10.60;;
2860;SDS011;1438;50.922;6.704;2023-04-06T06:26:21;13.13;;;8.65;;
2860;SDS011;1438;50.922;6.704;2023-04-06T06:28:47;15.57;;;9.40;;
2860;SDS011;1438;50.922;6.704;2023-04-06T06:31:13;14.15;;;8.88;;
2860;SDS011;1438;50.922;6.704;2023-04-06T06:33:39;15.65;;;8.85;;
2860;SDS011;1438;50.922;6.704;2023-04-06T06:36:05;17.98;;;9.40;;
2860;SDS011;1438;50.922;6.704;2023-04-06T06:38:31;15.00;;;9.60;;
2860;SDS011;1438;50.922;6.704;2023-04-06T06:40:57;12.15;;;9.00;;
2860;SDS011;1438;50.922;6.704;2023-04-06T06:43:24;14.07;;;8.90;;
2860;SDS011;1438;50.922;6.704;2023-04-06T06:45:50;13.52;;;8.85;;
2860;SDS011;1438;50.922;6.704;2023-04-06T06:48:16;12.48;;;7.75;;
2860;SDS011;1438;50.922;6.704;2023-04-06T06:50:42;13.95;;;9.07;;
2860;SDS011;1438;50.922;6.704;2023-04-06T06:53:08;17.23;;;8.30;;
2860;SDS011;1438;50.922;6.704;2023-04-06T06:55:34;12.07;;;8.65;;
2860;SDS011;1438;50.922;6.704;2023-04-06T06:58:00;14.07;;;8.05;;
2860;SDS011;1438;50.922;6.704;2023-04-06T07:00:26;12.20;;;8.45;;
2860;SDS011;1438;50.922;6.704;2023-04-06T07:02:53;11.43;;;8.40;;
2860;SDS011;1438;50.922;6.704;2023-04-06T07:05:19;11.95;;;8.23;;
2860;SDS011;1438;50.922;6.704;2023-04-06T07:07:45;16.98;;;8.98;;
2860;SDS011;1438;50.922;6.704;2023-04-06T07:10:11;13.55;;;9.60;;
2860;SDS011;1438;50.922;6.704;2023-04-06T07:12:37;18.15;;;8.15;;
2860;SDS011;1438;50.922;6.704;2023-04-06T07:15:03;13.10;;;8.38;;
2860;SDS011;1438;50.922;6.704;2023-04-06T07:17:29;17.88;;;9.20;;
2860;SDS011;1438;50.922;6.704;2023-04-06T07:19:55;11.80;;;8.45;;
2860;SDS011;1438;50.922;6.704;2023-04-06T07:22:22;17.40;;;8.60;;
2860;SDS011;1438;50.922;6.704;2023-04-06T07:24:48;13.00;;;8.98;;
2860;SDS011;1438;50.922;6.704;2023-04-06T07:27:14;11.48;;;8.65;;
2860;SDS011;1438;50.922;6.704;2023-04-06T07:29:41;13.23;;;9.48;;
2860;SDS011;1438;50.922;6.704;2023-04-06T07:32:08;11.35;;;9.02;;
2860;SDS011;1438;50.922;6.704;2023-04-06T07:34:34;12.88;;;9.05;;
2860;SDS011;1438;50.922;6.704;2023-04-06T07:37:00;13.73;;;9.65;;
2860;SDS011;1438;50.922;6.704;2023-04-06T07:39:29;14.63;;;8.88;;
2860;SDS011;1438;50.922;6.704;2023-04-06T07:41:55;13.52;;;8.32;;
2860;SDS011;1438;50.922;6.704;2023-04-06T07:44:21;12.63;;;8.98;;
2860;SDS011;1438;50.922;6.704;2023-04-06T07:46:47;14.27;;;9.45;;
2860;SDS011;1438;50.922;6.704;2023-04-06T07:49:13;14.05;;;9.38;;
2860;SDS011;1438;50.922;6.704;2023-04-06T07:51:39;17.42;;;9.90;;
2860;SDS011;1438;50.922;6.704;2023-04-06T07:54:06;14.15;;;8.68;;
2860;SDS011;1438;50.922;6.704;2023-04-06T07:56:32;15.00;;;8.70;;
2860;SDS011;1438;50.922;6.704;2023-04-06T07:58:58;14.20;;;9.70;;
2860;SDS011;1438;50.922;6.704;2023-04-06T08:01:24;16.90;;;10.48;;
2860;SDS011;1438;50.922;6.704;2023-04-06T08:03:51;15.82;;;9.90;;
2860;SDS011;1438;50.922;6.704;2023-04-06T08:06:17;10.73;;;9.05;;
2860;SDS011;1438;50.922;6.704;2023-04-06T08:08:43;14.10;;;8.90;;
2860;SDS011;1438;50.922;6.704;2023-04-06T08:11:09;17.02;;;10.88;;
2860;SDS011;1438;50.922;6.704;2023-04-06T08:13:36;16.45;;;9.20;;
2860;SDS011;1438;50.922;6.704;2023-04-06T08:16:02;16.02;;;10.63;;
2860;SDS011;1438;50.922;6.704;2023-04-06T08:18:28;11.15;;;8.63;;
2860;SDS011;1438;50.922;6.704;2023-04-06T08:20:55;15.07;;;9.55;;
2860;SDS011;1438;50.922;6.704;2023-04-06T08:23:21;11.40;;;9.20;;
2860;SDS011;1438;50.922;6.704;2023-04-06T08:25:47;15.50;;;8.90;;
2860;SDS011;1438;50.922;6.704;2023-04-06T08:28:14;13.70;;;9.20;;
2860;SDS011;1438;50.922;6.704;2023-04-06T08:30:41;12.55;;;9.55;;
2860;SDS011;1438;50.922;6.704;2023-04-06T08:33:07;13.27;;;8.53;;
2860;SDS011;1438;50.922;6.704;2023-04-06T08:35:33;14.77;;;7.97;;
2860;SDS011;1438;50.922;6.704;2023-04-06T08:37:59;11.50;;;8.17;;
2860;SDS011;1438;50.922;6.704;2023-04-06T08:40:27;13.30;;;8.90;;
2860;SDS011;1438;50.922;6.704;2023-04-06T08:42:56;11.90;;;8.93;;
2860;SDS011;1438;50.922;6.704;2023-04-06T08:45:27;13.90;;;9.30;;
2860;SDS011;1438;50.922;6.704;2023-04-06T08:47:53;12.40;;;9.77;;
2860;SDS011;1438;50.922;6.704;2023-04-06T08:50:20;14.53;;;9.37;;
2860;SDS011;1438;50.922;6.704;2023-04-06T08:52:47;15.87;;;9.47;;
2860;SDS011;1438;50.922;6.704;2023-04-06T08:55:13;13.90;;;9.03;;
2860;SDS011;1438;50.922;6.704;2023-04-06T08:57:40;12.30;;;9.27;;
2860;SDS011;1438;50.922;6.704;2023-04-06T09:00:07;16.33;;;9.33;;
2860;SDS011;1438;50.922;6.704;2023-04-06T09:02:33;12.43;;;8.33;;
2860;SDS011;1438;50.922;6.704;2023-04-06T09:04:59;14.60;;;9.40;;
2860;SDS011;1438;50.922;6.704;2023-04-06T09:07:26;14.17;;;9.53;;
2860;SDS011;1438;50.922;6.704;2023-04-06T09:09:54;12.67;;;8.57;;
2860;SDS011;1438;50.922;6.704;2023-04-06T09:12:27;15.60;;;9.90;;
2860;SDS011;1438;50.922;6.704;2023-04-06T09:14:54;17.97;;;9.00;;
2860;SDS011;1438;50.922;6.704;2023-04-06T09:17:27;14.30;;;8.67;;
2860;SDS011;1438;50.922;6.704;2023-04-06T09:19:54;13.93;;;9.23;;
2860;SDS011;1438;50.922;6.704;2023-04-06T09:22:20;13.37;;;9.60;;
2860;SDS011;1438;50.922;6.704;2023-04-06T09:24:50;15.83;;;8.67;;
2860;SDS011;1438;50.922;6.704;2023-04-06T09:27:17;15.10;;;9.37;;
2860;SDS011;1438;50.922;6.704;2023-04-06T09:29:43;16.57;;;10.53;;
2860;SDS011;1438;50.922;6.704;2023-04-06T09:32:10;17.13;;;11.03;;
2860;SDS011;1438;50.922;6.704;2023-04-06T09:34:37;17.17;;;10.17;;
2860;SDS011;1438;50.922;6.704;2023-04-06T09:37:16;14.17;;;8.50;;
2860;SDS011;1438;50.922;6.704;2023-04-06T09:39:43;14.37;;;9.53;;
2860;SDS011;1438;50.922;6.704;2023-04-06T09:42:09;14.93;;;9.17;;
2860;SDS011;1438;50.922;6.704;2023-04-06T09:44:35;15.47;;;9.97;;
2860;SDS011;1438;50.922;6.704;2023-04-06T09:47:02;11.70;;;8.23;;
2860;SDS011;1438;50.922;6.704;2023-04-06T09:49:30;17.43;;;10.33;;
2860;SDS011;1438;50.922;6.704;2023-04-06T09:51:57;13.60;;;10.27;;
2860;SDS011;1438;50.922;6.704;2023-04-06T09:54:24;15.10;;;10.40;;
2860;SDS011;1438;50.922;6.704;2023-04-06T10:02:14;14.30;;;9.47;;
2860;SDS011;1438;50.922;6.704;2023-04-06T10:04:43;15.10;;;9.87;;
2860;SDS011;1438;50.922;6.704;2023-04-06T10:07:09;14.97;;;10.07;;
2860;SDS011;1438;50.922;6.704;2023-04-06T10:09:37;14.37;;;9.40;;
2860;SDS011;1438;50.922;6.704;2023-04-06T10:12:04;14.10;;;9.53;;
2860;SDS011;1438;50.922;6.704;2023-04-06T10:14:34;13.60;;;9.63;;
2860;SDS011;1438;50.922;6.704;2023-04-06T10:17:03;14.50;;;9.33;;
2860;SDS011;1438;50.922;6.704;2023-04-06T10:19:39;15.23;;;10.10;;
2860;SDS011;1438;50.922;6.704;2023-04-06T10:22:07;13.07;;;8.37;;
2860;SDS011;1438;50.922;6.704;2023-04-06T10:24:35;14.60;;;9.53;;
2860;SDS011;1438;50.922;6.704;2023-04-06T10:27:01;17.50;;;10.10;;
2860;SDS011;1438;50.922;6.704;2023-04-06T10:29:27;15.00;;;9.80;;
2860;SDS011;1438;50.922;6.704;2023-04-06T10:31:53;15.40;;;9.90;;
2860;SDS011;1438;50.922;6.704;2023-04-06T10:34:20;20.77;;;10.57;;
2860;SDS011;1438;50.922;6.704;2023-04-06T10:36:46;13.33;;;8.53;;
2860;SDS011;1438;50.922;6.704;2023-04-06T10:39:12;17.97;;;10.20;;
2860;SDS011;1438;50.922;6.704;2023-04-06T10:41:42;14.60;;;8.30;;
2860;SDS011;1438;50.922;6.704;2023-04-06T10:44:30;11.10;;;8.87;;
2860;SDS011;1438;50.922;6.704;2023-04-06T10:46:57;14.10;;;9.03;;
2860;SDS011;1438;50.922;6.704;2023-04-06T10:49:25;16.30;;;10.70;;
2860;SDS011;1438;50.922;6.704;2023-04-06T10:51:52;14.47;;;9.17;;
2860;SDS011;1438;50.922;6.704;2023-04-06T10:54:19;12.67;;;8.87;;
2860;SDS011;1438;50.922;6.704;2023-04-06T10:56:47;14.60;;;8.60;;
2860;SDS011;1438;50.922;6.704;2023-04-06T10:59:13;17.23;;;9.70;;
2860;SDS011;1438;50.922;6.704;2023-04-06T11:01:39;14.83;;;9.40;;
2860;SDS011;1438;50.922;6.704;2023-04-06T11:04:11;19.43;;;9.97;;
2860;SDS011;1438;50.922;6.704;2023-04-06T11:06:41;17.37;;;9.77;;
2860;SDS011;1438;50.922;6.704;2023-04-06T11:09:07;15.60;;;10.40;;
2860;SDS011;1438;50.922;6.704;2023-04-06T11:11:34;16.03;;;9.57;;
2860;SDS011;1438;50.922;6.704;2023-04-06T11:14:04;16.90;;;9.40;;
2860;SDS011;1438;50.922;6.704;2023-04-06T11:16:31;17.67;;;8.63;;
2860;SDS011;1438;50.922;6.704;2023-04-06T11:21:36;15.03;;;8.97;;
2860;SDS011;1438;50.922;6.704;2023-04-06T11:24:22;17.03;;;9.20;;
2860;SDS011;1438;50.922;6.704;2023-04-06T11:26:58;25.57;;;10.73;;
2860;SDS011;1438;50.922;6.704;2023-04-06T11:29:30;16.00;;;9.50;;
2860;SDS011;1438;50.922;6.704;2023-04-06T11:32:00;16.57;;;9.53;;
2860;SDS011;1438;50.922;6.704;2023-04-06T11:34:28;14.80;;;10.13;;
2860;SDS011;1438;50.922;6.704;2023-04-06T11:36:58;18.03;;;9.90;;
2860;SDS011;1438;50.922;6.704;2023-04-06T11:39:25;16.87;;;9.27;;
2860;SDS011;1438;50.922;6.704;2023-04-06T11:41:57;16.33;;;10.50;;
2860;SDS011;1438;50.922;6.704;2023-04-06T11:44:31;20.57;;;11.33;;
2860;SDS011;1438;50.922;6.704;2023-04-06T11:46:57;16.67;;;9.63;;
2860;SDS011;1438;50.922;6.704;2023-04-06T11:49:27;17.83;;;10.20;;
2860;SDS011;1438;50.922;6.704;2023-04-06T11:51:54;18.33;;;9.63;;
2860;SDS011;1438;50.922;6.704;2023-04-06T11:54:36;16.80;;;10.00;;
2860;SDS011;1438;50.922;6.704;2023-04-06T11:57:03;14.97;;;9.53;;
2860;SDS011;1438;50.922;6.704;2023-04-06T11:59:30;20.23;;;9.97;;
2860;SDS011;1438;50.922;6.704;2023-04-06T12:01:58;16.17;;;9.00;;
2860;SDS011;1438;50.922;6.704;2023-04-06T12:04:24;20.17;;;9.70;;
2860;SDS011;1438;50.922;6.704;2023-04-06T12:06:50;16.60;;;10.20;;
2860;SDS011;1438;50.922;6.704;2023-04-06T12:09:17;15.03;;;7.80;;
2860;SDS011;1438;50.922;6.704;2023-04-06T12:11:43;15.40;;;9.40;;
2860;SDS011;1438;50.922;6.704;2023-04-06T12:14:10;13.47;;;8.80;;
2860;SDS011;1438;50.922;6.704;2023-04-06T12:16:36;16.20;;;8.73;;
2860;SDS011;1438;50.922;6.704;2023-04-06T12:19:02;16.00;;;9.57;;
2860;SDS011;1438;50.922;6.704;2023-04-06T12:21:28;13.87;;;9.60;;
2860;SDS011;1438;50.922;6.704;2023-04-06T12:23:56;11.50;;;7.40;;
2860;SDS011;1438;50.922;6.704;2023-04-06T12:26:22;11.30;;;7.23;;
2860;SDS011;1438;50.922;6.704;2023-04-06T12:28:48;9.27;;;6.20;;
2860;SDS011;1438;50.922;6.704;2023-04-06T12:31:17;5.30;;;4.23;;
2860;SDS011;1438;50.922;6.704;2023-04-06T12:33:46;15.97;;;9.90;;
2860;SDS011;1438;50.922;6.704;2023-04-06T12:36:13;12.83;;;6.93;;
2860;SDS011;1438;50.922;6.704;2023-04-06T12:38:39;12.40;;;7.43;;
2860;SDS011;1438;50.922;6.704;2023-04-06T12:41:06;15.43;;;7.60;;
2860;SDS011;1438;50.922;6.704;2023-04-06T12:43:32;7.97;;;6.00;;
2860;SDS011;1438;50.922;6.704;2023-04-06T12:45:58;8.20;;;6.27;;
2860;SDS011;1438;50.922;6.704;2023-04-06T12:48:27;10.30;;;5.40;;
2860;SDS011;1438;50.922;6.704;2023-04-06T12:50:57;8.97;;;5.47;;
2860;SDS011;1438;50.922;6.704;2023-04-06T12:53:23;8.77;;;6.10;;
2860;SDS011;1438;50.922;6.704;2023-04-06T12:55:49;7.00;;;5.70;;
2860;SDS011;1438;50.922;6.704;2023-04-06T12:58:16;6.97;;;5.20;;
2860;SDS011;1438;50.922;6.704;2023-04-06T13:00:42;9.67;;;5.97;;
2860;SDS011;1438;50.922;6.704;2023-04-06T13:03:09;7.80;;;5.93;;
2860;SDS011;1438;50.922;6.704;2023-04-06T13:05:35;12.80;;;6.77;;
2860;SDS011;1438;50.922;6.704;2023-04-06T13:08:01;7.33;;;5.63;;
2860;SDS011;1438;50.922;6.704;2023-04-06T13:10:27;8.87;;;6.40;;
2860;SDS011;1438;50.922;6.704;2023-04-06T13:12:53;11.60;;;6.57;;
2860;SDS011;1438;50.922;6.704;2023-04-06T13:15:19;7.97;;;5.37;;
2860;SDS011;1438;50.922;6.704;2023-04-06T13:17:45;6.57;;;4.23;;
2860;SDS011;1438;50.922;6.704;2023-04-06T13:20:11;7.37;;;4.37;;
2860;SDS011;1438;50.922;6.704;2023-04-06T13:22:38;6.43;;;4.43;;
2860;SDS011;1438;50.922;6.704;2023-04-06T13:25:04;6.97;;;5.00;;
2860;SDS011;1438;50.922;6.704;2023-04-06T13:27:30;7.13;;;5.60;;
2860;SDS011;1438;50.922;6.704;2023-04-06T13:29:58;7.13;;;5.43;;
2860;SDS011;1438;50.922;6.704;2023-04-06T13:32:25;8.93;;;5.20;;
2860;SDS011;1438;50.922;6.704;2023-04-06T13:34:53;10.97;;;6.40;;
2860;SDS011;1438;50.922;6.704;2023-04-06T13:37:20;8.07;;;5.50;;
2860;SDS011;1438;50.922;6.704;2023-04-06T13:39:46;6.70;;;5.30;;
2860;SDS011;1438;50.922;6.704;2023-04-06T13:42:12;7.97;;;5.67;;
2860;SDS011;1438;50.922;6.704;2023-04-06T13:44:38;8.67;;;6.30;;
2860;SDS011;1438;50.922;6.704;2023-04-06T13:47:04;8.10;;;5.50;;
2860;SDS011;1438;50.922;6.704;2023-04-06T13:49:30;8.97;;;6.43;;
2860;SDS011;1438;50.922;6.704;2023-04-06T13:51:57;6.43;;;5.50;;
2860;SDS011;1438;50.922;6.704;2023-04-06T13:54:23;8.47;;;6.73;;
2860;SDS011;1438;50.922;6.704;2023-04-06T13:56:51;8.57;;;5.17;;
2860;SDS011;1438;50.922;6.704;2023-04-06T13:59:17;6.93;;;5.40;;
2860;SDS011;1438;50.922;6.704;2023-04-06T14:01:43;8.83;;;5.33;;
2860;SDS011;1438;50.922;6.704;2023-04-06T14:04:09;7.90;;;4.40;;
2860;SDS011;1438;50.922;6.704;2023-04-06T14:06:36;8.30;;;5.60;;
2860;SDS011;1438;50.922;6.704;2023-04-06T14:09:02;12.77;;;5.93;;
2860;SDS011;1438;50.922;6.704;2023-04-06T14:11:28;9.17;;;5.40;;
2860;SDS011;1438;50.922;6.704;2023-04-06T14:13:55;8.07;;;5.13;;
2860;SDS011;1438;50.922;6.704;2023-04-06T14:16:23;8.43;;;5.60;;
2860;SDS011;1438;50.922;6.704;2023-04-06T14:18:49;9.63;;;6.43;;
2860;SDS011;1438;50.922;6.704;2023-04-06T14:21:16;6.40;;;5.10;;
2860;SDS011;1438;50.922;6.704;2023-04-06T14:23:43;8.18;;;6.05;;
2860;SDS011;1438;50.922;6.704;2023-04-06T14:26:09;8.48;;;5.30;;
2860;SDS011;1438;50.922;6.704;2023-04-06T14:28:36;7.78;;;5.25;;
2860;SDS011;1438;50.922;6.704;2023-04-06T14:31:09;10.07;;;6.53;;
2860;SDS011;1438;50.922;6.704;2023-04-06T14:33:36;9.63;;;6.30;;
2860;SDS011;1438;50.922;6.704;2023-04-06T14:36:03;11.13;;;7.55;;
2860;SDS011;1438;50.922;6.704;2023-04-06T14:38:29;8.65;;;6.13;;
2860;SDS011;1438;50.922;6.704;2023-04-06T14:40:56;9.02;;;5.88;;
2860;SDS011;1438;50.922;6.704;2023-04-06T14:43:22;9.27;;;6.82;;
2860;SDS011;1438;50.922;6.704;2023-04-06T14:45:49;10.15;;;6.40;;
2860;SDS011;1438;50.922;6.704;2023-04-06T14:48:15;7.18;;;5.75;;
2860;SDS011;1438;50.922;6.704;2023-04-06T14:50:51;7.53;;;6.25;;
2860;SDS011;1438;50.922;6.704;2023-04-06T14:53:18;9.65;;;6.40;;
2860;SDS011;1438;50.922;6.704;2023-04-06T14:55:44;10.15;;;5.78;;
2860;SDS011;1438;50.922;6.704;2023-04-06T14:58:10;11.30;;;8.63;;
2860;SDS011;1438;50.922;6.704;2023-04-06T15:00:37;12.52;;;9.20;;
2860;SDS011;1438;50.922;6.704;2023-04-06T15:03:04;13.10;;;8.82;;